Penn Valley, California
Current Conditions -  °F | °C
As of 5:40 PM on Thursday 18 Dec 2014 (Local Time) from KGOO Reporting Station
Clear Clear  
Wind Chill: 45°   Ceiling: Unl
Heat Index: 45°   Visibility: 10mi
Dew Point: 37°   Wind: 3mph
Humidity: 76%   Direction: 120°ESE
Pressure: 30.16"   Gusts: NA
Location:  39.2°N, 121.19°W
Report Text: KGOO 190140Z AUTO 12003KT 10SM CLR 07/03 A3016 RMK AO1
Loading
Personal Weather Stations






























Interactive Weather Map New forecast layout! Learn more

10-Day Weather Forecast

Advertisements
Track Severe Weather on mobile